Time;durP1;ratioP1;P1;durP2;ratioP2;P2;SDS_P1;SDS_P2;PMS_P1;PMS_P2;Temp;Humidity;BMP_temperature;BMP_pressure;BME280_temperature;BME280_humidity;BME280_pressure;Samples;Min_cycle;Max_cycle;Signal;HPM_P1;HPM_P2
2022/04/07 00:00:49;;;;;;;10.63;9.90;;;;;;;;;;4931198;29;20055;-69
2022/04/07 00:03:15;;;;;;;10.25;9.65;;;;;;;;;;4937762;29;20040;-68
2022/04/07 00:05:41;;;;;;;10.32;9.73;;;;;;;;;;4932186;29;20035;-69
2022/04/07 00:08:07;;;;;;;10.68;10.07;;;;;;;;;;4930503;29;20322;-68
2022/04/07 00:10:35;;;;;;;10.70;10.10;;;;;;;;;;4929273;29;20070;-69
2022/04/07 00:13:01;;;;;;;10.43;9.82;;;;;;;;;;4933317;29;20032;-68
2022/04/07 00:15:27;;;;;;;10.65;10.05;;;;;;;;;;4931081;29;20435;-68
2022/04/07 00:17:53;;;;;;;11.10;10.30;;;;;;;;;;4931635;29;20067;-69
2022/04/07 00:20:20;;;;;;;10.55;9.93;;;;;;;;;;4934164;29;20040;-69
2022/04/07 00:22:47;;;;;;;11.00;10.30;;;;;;;;;;4932146;29;20127;-69
2022/04/07 00:25:13;;;;;;;10.88;10.27;;;;;;;;;;4931719;29;20448;-68
2022/04/07 00:27:39;;;;;;;11.10;10.40;;;;;;;;;;4933752;29;21895;-69
2022/04/07 00:30:06;;;;;;;11.20;10.52;;;;;;;;;;4932050;29;20165;-70
2022/04/07 00:32:31;;;;;;;11.25;10.45;;;;;;;;;;4931694;29;20059;-70
2022/04/07 00:34:57;;;;;;;11.00;10.40;;;;;;;;;;4932229;29;20067;-70
2022/04/07 00:37:24;;;;;;;10.68;10.07;;;;;;;;;;4934613;29;20039;-69
2022/04/07 00:39:50;;;;;;;10.80;10.20;;;;;;;;;;4931598;29;20039;-69
2022/04/07 00:42:16;;;;;;;9.65;8.85;;;;;;;;;;4932053;29;20063;-69
2022/04/07 00:44:43;;;;;;;9.93;9.32;;;;;;;;;;4936788;28;20067;-69
2022/04/07 00:47:10;;;;;;;10.05;9.35;;;;;;;;;;4915364;29;20044;-69
2022/04/07 00:49:35;;;;;;;10.00;9.20;;;;;;;;;;4931517;29;20031;-70
2022/04/07 00:52:01;;;;;;;10.52;9.90;;;;;;;;;;4913885;29;20039;-70
2022/04/07 00:54:28;;;;;;;10.65;9.95;;;;;;;;;;4916330;29;20078;-70
2022/04/07 00:56:59;;;;;;;12.90;12.10;;;;;;;;;;4931880;29;20039;-70
2022/04/07 00:59:25;;;;;;;12.68;11.77;;;;;;;;;;4930898;29;20055;-70
2022/04/07 01:01:51;;;;;;;12.30;11.48;;;;;;;;;;4926365;29;20075;-70
2022/04/07 01:04:16;;;;;;;12.65;11.85;;;;;;;;;;4931830;29;20035;-70
2022/04/07 01:06:43;;;;;;;12.30;11.50;;;;;;;;;;4930817;29;20035;-70
2022/04/07 01:09:12;;;;;;;13.10;12.00;;;;;;;;;;4926962;29;20031;-69
2022/04/07 01:11:38;;;;;;;13.20;12.40;;;;;;;;;;4932966;29;20083;-69
2022/04/07 01:14:04;;;;;;;12.82;11.90;;;;;;;;;;4931429;29;20040;-69
2022/04/07 01:16:30;;;;;;;13.05;12.15;;;;;;;;;;4930149;29;20028;-69
2022/04/07 01:18:59;;;;;;;12.95;12.15;;;;;;;;;;4928563;29;20067;-69
2022/04/07 01:21:26;;;;;;;13.23;12.43;;;;;;;;;;4918168;29;20067;-69
2022/04/07 01:23:57;;;;;;;13.77;12.77;;;;;;;;;;4928393;29;20047;-70
2022/04/07 01:26:25;;;;;;;13.70;12.80;;;;;;;;;;4929919;29;20427;-70
2022/04/07 01:28:51;;;;;;;13.90;13.00;;;;;;;;;;4932968;29;20059;-70
2022/04/07 01:31:16;;;;;;;13.35;12.48;;;;;;;;;;4930476;29;20089;-70
2022/04/07 01:33:43;;;;;;;13.40;12.60;;;;;;;;;;4930311;29;20558;-71
2022/04/07 01:36:11;;;;;;;13.35;12.45;;;;;;;;;;4928876;29;20039;-70
2022/04/07 01:38:37;;;;;;;12.95;12.15;;;;;;;;;;4932135;29;20605;-71
2022/04/07 01:41:02;;;;;;;12.80;12.00;;;;;;;;;;4915579;29;20079;-70
2022/04/07 01:43:29;;;;;;;13.20;12.20;;;;;;;;;;4913701;29;20035;-70
2022/04/07 01:45:54;;;;;;;12.75;11.88;;;;;;;;;;4934798;28;20043;-71
2022/04/07 01:48:20;;;;;;;12.90;12.00;;;;;;;;;;4931468;29;20142;-70
2022/04/07 01:50:49;;;;;;;12.40;11.50;;;;;;;;;;4930390;29;20039;-70
2022/04/07 01:53:15;;;;;;;12.52;11.73;;;;;;;;;;4911670;29;20131;-71
2022/04/07 01:55:41;;;;;;;12.00;11.30;;;;;;;;;;4936104;28;20028;-71
2022/04/07 01:58:07;;;;;;;12.02;11.27;;;;;;;;;;4930175;29;20046;-70
2022/04/07 02:00:33;;;;;;;12.60;11.80;;;;;;;;;;4929158;29;20060;-70
2022/04/07 02:02:59;;;;;;;12.25;11.55;;;;;;;;;;4928829;29;20107;-71
2022/04/07 02:05:24;;;;;;;12.13;11.43;;;;;;;;;;4933634;29;20042;-71
2022/04/07 02:07:50;;;;;;;11.90;11.20;;;;;;;;;;4930316;29;20039;-70
2022/04/07 02:10:15;;;;;;;12.10;11.40;;;;;;;;;;4924295;29;20050;-71
2022/04/07 02:12:42;;;;;;;11.85;11.15;;;;;;;;;;4931333;29;20032;-70
2022/04/07 02:15:09;;;;;;;11.80;11.10;;;;;;;;;;4932096;29;20066;-70
2022/04/07 02:17:35;;;;;;;12.00;11.30;;;;;;;;;;4929836;29;20499;-70
2022/04/07 02:20:05;;;;;;;12.20;11.50;;;;;;;;;;4929793;29;20131;-70
2022/04/07 02:22:30;;;;;;;11.82;11.15;;;;;;;;;;4931115;29;20098;-70
2022/04/07 02:24:56;;;;;;;11.70;11.00;;;;;;;;;;4931532;29;20432;-70
2022/04/07 02:27:22;;;;;;;11.88;11.18;;;;;;;;;;4923495;29;20102;-70
2022/04/07 02:29:48;;;;;;;12.02;11.30;;;;;;;;;;4931113;28;20086;-70
2022/04/07 02:32:14;;;;;;;11.57;10.88;;;;;;;;;;4935713;29;20131;-70
2022/04/07 02:34:40;;;;;;;11.68;10.98;;;;;;;;;;4933514;29;20470;-70
2022/04/07 02:37:06;;;;;;;11.82;11.13;;;;;;;;;;4932824;29;20047;-70
2022/04/07 02:39:32;;;;;;;12.10;11.30;;;;;;;;;;4938172;29;20047;-70
2022/04/07 02:41:58;;;;;;;11.98;11.27;;;;;;;;;;4936977;29;20036;-70
2022/04/07 02:44:24;;;;;;;12.00;11.30;;;;;;;;;;4933946;29;20476;-70
2022/04/07 02:46:50;;;;;;;11.75;10.85;;;;;;;;;;4932584;29;20038;-70
2022/04/07 02:49:15;;;;;;;11.35;10.75;;;;;;;;;;4932912;29;20079;-70
2022/04/07 02:51:41;;;;;;;11.05;10.45;;;;;;;;;;4934584;29;20495;-70
2022/04/07 02:54:07;;;;;;;10.75;10.15;;;;;;;;;;4933581;29;20071;-70
2022/04/07 02:56:32;;;;;;;11.05;10.43;;;;;;;;;;4910642;29;20044;-70
2022/04/07 02:58:58;;;;;;;10.85;10.25;;;;;;;;;;4933315;29;20039;-70
2022/04/07 03:01:24;;;;;;;11.20;10.48;;;;;;;;;;4934221;29;20064;-70
2022/04/07 03:03:50;;;;;;;10.90;10.27;;;;;;;;;;4931666;29;20078;-70
2022/04/07 03:06:16;;;;;;;10.95;10.35;;;;;;;;;;4930818;29;20038;-70
2022/04/07 03:08:43;;;;;;;10.75;10.05;;;;;;;;;;4919443;29;20384;-70
2022/04/07 03:11:09;;;;;;;10.90;10.20;;;;;;;;;;4931749;29;20679;-70
2022/04/07 03:13:38;;;;;;;10.48;9.88;;;;;;;;;;4937386;29;20039;-70
2022/04/07 03:16:04;;;;;;;10.95;10.18;;;;;;;;;;4927511;29;20391;-70
2022/04/07 03:18:30;;;;;;;10.52;9.93;;;;;;;;;;4933511;29;20040;-70
2022/04/07 03:20:55;;;;;;;10.63;10.02;;;;;;;;;;4932879;29;20038;-70
2022/04/07 03:23:21;;;;;;;10.57;9.98;;;;;;;;;;4918270;29;20040;-70
2022/04/07 03:25:47;;;;;;;10.55;9.95;;;;;;;;;;4933239;29;20036;-70
2022/04/07 03:28:12;;;;;;;10.30;9.70;;;;;;;;;;4933016;29;20043;-70
2022/04/07 03:30:38;;;;;;;10.88;10.10;;;;;;;;;;4935212;29;20039;-70
2022/04/07 03:33:06;;;;;;;9.88;9.38;;;;;;;;;;4934473;29;20166;-70
2022/04/07 03:35:38;;;;;;;9.73;9.13;;;;;;;;;;4932682;29;20222;-70
2022/04/07 03:38:05;;;;;;;9.20;8.70;;;;;;;;;;4932884;29;20039;-70
2022/04/07 03:40:30;;;;;;;9.07;8.57;;;;;;;;;;4927084;29;20043;-69
2022/04/07 03:42:56;;;;;;;8.93;8.43;;;;;;;;;;4934306;29;20044;-70
2022/04/07 03:45:21;;;;;;;9.20;8.70;;;;;;;;;;4932182;29;20071;-69
2022/04/07 03:47:47;;;;;;;9.38;8.73;;;;;;;;;;4928002;29;20052;-69
2022/04/07 03:50:13;;;;;;;9.70;8.90;;;;;;;;;;4917041;29;20075;-69
2022/04/07 03:52:38;;;;;;;9.65;9.05;;;;;;;;;;4933926;29;20066;-69
2022/04/07 03:55:04;;;;;;;9.50;8.90;;;;;;;;;;4932165;29;20091;-70
2022/04/07 03:57:30;;;;;;;10.40;9.57;;;;;;;;;;4931222;29;20044;-69
2022/04/07 03:59:56;;;;;;;9.52;9.02;;;;;;;;;;4933391;29;20040;-69
2022/04/07 04:02:21;;;;;;;9.80;9.20;;;;;;;;;;4928828;29;20035;-68
2022/04/07 04:04:47;;;;;;;9.43;8.88;;;;;;;;;;4932511;29;20035;-68
2022/04/07 04:07:13;;;;;;;9.70;9.20;;;;;;;;;;4914170;29;20043;-68
2022/04/07 04:09:38;;;;;;;9.25;8.73;;;;;;;;;;4935058;29;20127;-68
2022/04/07 04:12:05;;;;;;;9.70;9.07;;;;;;;;;;4915358;29;20119;-69
2022/04/07 04:14:31;;;;;;;9.27;8.77;;;;;;;;;;4915201;29;20095;-68
2022/04/07 04:16:56;;;;;;;9.32;8.82;;;;;;;;;;4932807;29;20027;-69
2022/04/07 04:19:22;;;;;;;8.85;8.35;;;;;;;;;;4931722;29;20102;-70
2022/04/07 04:21:49;;;;;;;9.25;8.75;;;;;;;;;;4936087;29;20510;-68
2022/04/07 04:24:14;;;;;;;9.70;9.10;;;;;;;;;;4933873;29;20050;-68
2022/04/07 04:26:40;;;;;;;9.35;8.85;;;;;;;;;;4914026;29;20122;-68
2022/04/07 04:29:05;;;;;;;9.45;8.95;;;;;;;;;;4924370;29;20042;-68
2022/04/07 04:31:31;;;;;;;9.20;8.70;;;;;;;;;;4933419;29;20032;-68
2022/04/07 04:33:57;;;;;;;9.25;8.70;;;;;;;;;;4932705;29;20597;-68
2022/04/07 04:36:23;;;;;;;9.68;9.07;;;;;;;;;;4931382;29;20048;-68
2022/04/07 04:38:48;;;;;;;9.60;9.10;;;;;;;;;;4927259;29;20075;-68
2022/04/07 04:41:15;;;;;;;9.93;9.23;;;;;;;;;;4935060;29;20070;-68
2022/04/07 04:43:40;;;;;;;9.70;9.07;;;;;;;;;;4933220;29;20032;-68
2022/04/07 04:46:07;;;;;;;9.90;9.30;;;;;;;;;;4931744;29;20039;-68
2022/04/07 04:48:38;;;;;;;9.57;9.07;;;;;;;;;;4936520;29;20395;-68
2022/04/07 04:51:07;;;;;;;9.45;8.95;;;;;;;;;;4913601;29;20039;-68
2022/04/07 04:53:33;;;;;;;9.60;9.10;;;;;;;;;;4930600;29;20036;-68
2022/04/07 04:55:58;;;;;;;9.38;8.77;;;;;;;;;;4928621;29;20797;-68
2022/04/07 04:58:24;;;;;;;9.35;8.85;;;;;;;;;;4936757;29;20031;-69
2022/04/07 05:00:50;;;;;;;9.05;8.55;;;;;;;;;;4929884;29;20105;-68
2022/04/07 05:03:16;;;;;;;9.45;8.85;;;;;;;;;;4928052;29;20673;-69
2022/04/07 05:05:42;;;;;;;8.85;8.35;;;;;;;;;;4936366;29;20123;-68
2022/04/07 05:08:07;;;;;;;9.27;8.68;;;;;;;;;;4935058;29;20123;-69
2022/04/07 05:10:33;;;;;;;9.45;8.80;;;;;;;;;;4913748;29;20110;-68
2022/04/07 05:12:59;;;;;;;9.15;8.65;;;;;;;;;;4930207;29;20040;-67
2022/04/07 05:15:25;;;;;;;8.63;8.13;;;;;;;;;;4932032;29;20050;-68
2022/04/07 05:17:52;;;;;;;8.80;8.25;;;;;;;;;;4931276;29;20070;-68
2022/04/07 05:20:18;;;;;;;8.77;8.27;;;;;;;;;;4913956;29;20126;-68
2022/04/07 05:22:44;;;;;;;9.32;8.73;;;;;;;;;;4915964;29;20074;-68
2022/04/07 05:25:10;;;;;;;9.50;8.93;;;;;;;;;;4931186;29;20067;-68
2022/04/07 05:27:37;;;;;;;9.27;8.77;;;;;;;;;;4930920;29;20406;-68
2022/04/07 05:30:04;;;;;;;9.48;8.80;;;;;;;;;;4930360;29;20553;-68
2022/04/07 05:32:30;;;;;;;9.45;8.85;;;;;;;;;;4914326;29;20040;-68
2022/04/07 05:34:55;;;;;;;8.82;8.32;;;;;;;;;;4932025;29;20039;-68
2022/04/07 05:37:21;;;;;;;9.10;8.60;;;;;;;;;;4930935;29;20122;-68
2022/04/07 05:39:47;;;;;;;8.80;8.23;;;;;;;;;;4937243;29;20406;-68
2022/04/07 05:42:13;;;;;;;8.75;8.25;;;;;;;;;;4933915;29;20046;-68
2022/04/07 05:44:38;;;;;;;8.98;8.48;;;;;;;;;;4930539;29;20055;-68
2022/04/07 05:47:04;;;;;;;8.93;8.32;;;;;;;;;;4930785;29;20521;-68
2022/04/07 05:49:30;;;;;;;8.80;8.10;;;;;;;;;;4911057;29;20043;-68
2022/04/07 05:52:00;;;;;;;8.93;8.38;;;;;;;;;;4933910;29;20050;-67
2022/04/07 05:54:27;;;;;;;8.80;8.30;;;;;;;;;;4930698;29;20110;-68
2022/04/07 05:56:53;;;;;;;8.82;8.32;;;;;;;;;;4930414;29;20043;-68
2022/04/07 05:59:19;;;;;;;8.48;7.88;;;;;;;;;;4934422;29;20047;-68
2022/04/07 06:01:44;;;;;;;8.60;7.95;;;;;;;;;;4929974;29;20123;-68
2022/04/07 06:04:10;;;;;;;8.98;8.38;;;;;;;;;;4913122;29;20039;-68
2022/04/07 06:06:36;;;;;;;8.98;8.38;;;;;;;;;;4929360;29;20046;-68
2022/04/07 06:09:02;;;;;;;9.52;8.93;;;;;;;;;;4904750;29;20043;-68
2022/04/07 06:11:28;;;;;;;9.10;8.50;;;;;;;;;;4932519;29;20641;-68
2022/04/07 06:13:54;;;;;;;9.18;8.63;;;;;;;;;;4912679;29;20050;-68
2022/04/07 06:16:20;;;;;;;9.38;8.77;;;;;;;;;;4913802;29;20475;-68
2022/04/07 06:18:45;;;;;;;8.40;7.90;;;;;;;;;;4926117;29;20047;-69
2022/04/07 06:21:11;;;;;;;8.50;7.95;;;;;;;;;;4930542;29;20039;-68
2022/04/07 06:23:37;;;;;;;16.00;8.60;;;;;;;;;;4930001;29;20039;-68
2022/04/07 06:26:02;;;;;;;8.55;8.05;;;;;;;;;;4927749;29;20039;-68
2022/04/07 06:28:28;;;;;;;9.25;8.45;;;;;;;;;;4931271;29;20048;-68
2022/04/07 06:30:54;;;;;;;9.15;8.55;;;;;;;;;;4930527;29;20408;-68
2022/04/07 06:33:21;;;;;;;9.07;8.48;;;;;;;;;;4929630;29;20067;-68
2022/04/07 06:35:49;;;;;;;9.50;8.80;;;;;;;;;;4930436;29;20031;-68
2022/04/07 06:38:15;;;;;;;9.02;8.50;;;;;;;;;;4930117;29;20105;-68
2022/04/07 06:40:41;;;;;;;8.80;8.30;;;;;;;;;;4929658;29;20039;-68
2022/04/07 06:43:06;;;;;;;9.07;8.57;;;;;;;;;;4923450;29;20039;-68
2022/04/07 06:45:32;;;;;;;8.65;8.15;;;;;;;;;;4930506;28;20063;-68
2022/04/07 06:47:57;;;;;;;8.52;8.13;;;;;;;;;;4930318;29;20035;-68
2022/04/07 06:50:25;;;;;;;8.90;8.40;;;;;;;;;;4929170;29;20040;-68
2022/04/07 06:52:51;;;;;;;8.70;8.20;;;;;;;;;;4942182;28;20118;-68
2022/04/07 06:55:17;;;;;;;9.02;8.32;;;;;;;;;;4954396;28;20035;-68
2022/04/07 06:57:55;;;;;;;9.05;8.45;;;;;;;;;;4948214;29;20035;-68
2022/04/07 07:00:26;;;;;;;8.82;8.32;;;;;;;;;;4944091;28;20038;-68
2022/04/07 07:02:53;;;;;;;8.88;8.07;;;;;;;;;;4951618;28;20042;-68
2022/04/07 07:05:23;;;;;;;9.18;8.57;;;;;;;;;;4945636;28;20043;-69
2022/04/07 07:07:50;;;;;;;8.93;8.40;;;;;;;;;;4948236;29;20064;-68
2022/04/07 07:10:22;;;;;;;8.80;8.23;;;;;;;;;;4929791;29;20051;-68
2022/04/07 07:12:48;;;;;;;8.50;8.00;;;;;;;;;;4943943;28;20039;-67
2022/04/07 07:15:14;;;;;;;8.07;7.68;;;;;;;;;;4949563;28;20089;-67
2022/04/07 07:17:40;;;;;;;8.35;7.85;;;;;;;;;;4945930;28;20509;-69
2022/04/07 07:20:11;;;;;;;8.10;7.60;;;;;;;;;;4948602;28;20127;-69
2022/04/07 07:22:41;;;;;;;8.48;7.97;;;;;;;;;;4956072;28;20557;-69
2022/04/07 07:25:08;;;;;;;9.20;8.38;;;;;;;;;;4955241;28;20454;-69
2022/04/07 07:27:45;;;;;;;8.85;8.35;;;;;;;;;;4951700;28;20636;-68
2022/04/07 07:30:12;;;;;;;8.70;8.20;;;;;;;;;;4929808;29;20087;-68
2022/04/07 07:32:39;;;;;;;9.20;8.60;;;;;;;;;;4946822;28;20035;-68
2022/04/07 07:35:07;;;;;;;8.85;8.32;;;;;;;;;;4956710;28;20043;-68
2022/04/07 07:37:32;;;;;;;8.98;8.30;;;;;;;;;;4953358;28;20494;-67
2022/04/07 07:40:05;;;;;;;8.75;8.25;;;;;;;;;;4934366;29;20070;-68
2022/04/07 07:42:31;;;;;;;8.40;7.82;;;;;;;;;;4946093;28;20056;-68
2022/04/07 07:44:56;;;;;;;8.77;8.07;;;;;;;;;;4956725;28;20043;-67
2022/04/07 07:47:22;;;;;;;8.75;8.25;;;;;;;;;;4934915;29;20043;-68
2022/04/07 07:49:47;;;;;;;9.20;8.70;;;;;;;;;;4949234;28;20037;-68
2022/04/07 07:52:13;;;;;;;9.13;8.63;;;;;;;;;;4950942;28;20494;-67
2022/04/07 07:54:39;;;;;;;9.63;9.02;;;;;;;;;;4953931;28;20049;-68
2022/04/07 07:57:05;;;;;;;8.93;8.25;;;;;;;;;;4950018;28;20127;-68
2022/04/07 07:59:30;;;;;;;8.77;8.27;;;;;;;;;;4933800;29;20039;-67
2022/04/07 08:01:56;;;;;;;8.88;8.38;;;;;;;;;;4954461;28;20062;-67
2022/04/07 08:04:21;;;;;;;8.60;8.10;;;;;;;;;;4936613;29;20068;-68
2022/04/07 08:06:47;;;;;;;9.00;8.50;;;;;;;;;;4951608;28;20039;-68
2022/04/07 08:09:14;;;;;;;8.88;8.38;;;;;;;;;;4950775;29;20031;-67
2022/04/07 08:11:43;;;;;;;9.07;8.38;;;;;;;;;;4939313;28;20054;-67
2022/04/07 08:14:09;;;;;;;8.90;8.27;;;;;;;;;;4951145;28;20117;-67
2022/04/07 08:16:36;;;;;;;9.02;8.52;;;;;;;;;;4950467;28;20143;-67
2022/04/07 08:19:01;;;;;;;8.98;8.40;;;;;;;;;;4946963;28;20521;-67
2022/04/07 08:21:27;;;;;;;9.40;8.80;;;;;;;;;;4960319;28;20028;-68
2022/04/07 08:23:53;;;;;;;9.07;8.48;;;;;;;;;;4950278;29;20051;-68
2022/04/07 08:26:19;;;;;;;9.43;8.82;;;;;;;;;;4950498;28;20050;-67
2022/04/07 08:28:45;;;;;;;9.52;8.82;;;;;;;;;;4948541;28;20120;-68
2022/04/07 08:31:10;;;;;;;9.80;9.15;;;;;;;;;;4950295;28;20644;-68
2022/04/07 08:33:36;;;;;;;9.52;8.93;;;;;;;;;;4952821;28;20586;-68
2022/04/07 08:36:02;;;;;;;9.52;8.85;;;;;;;;;;4953282;28;20039;-68
2022/04/07 08:38:27;;;;;;;9.80;9.00;;;;;;;;;;4951141;28;20063;-68
2022/04/07 08:40:55;;;;;;;9.77;9.18;;;;;;;;;;4934388;29;20526;-68
2022/04/07 08:43:21;;;;;;;9.05;8.48;;;;;;;;;;4951894;28;20110;-67
2022/04/07 08:45:48;;;;;;;9.65;9.05;;;;;;;;;;4946000;28;20043;-67
2022/04/07 08:48:15;;;;;;;8.93;8.35;;;;;;;;;;4950028;29;20114;-68
2022/04/07 08:50:42;;;;;;;9.07;8.57;;;;;;;;;;4948635;28;20042;-68
2022/04/07 08:53:09;;;;;;;9.85;9.25;;;;;;;;;;4959966;28;20031;-68
2022/04/07 08:55:35;;;;;;;9.30;8.80;;;;;;;;;;4949411;28;20475;-73
2022/04/07 08:58:01;;;;;;;9.55;8.95;;;;;;;;;;4950448;29;20039;-68
2022/04/07 09:00:26;;;;;;;9.60;9.07;;;;;;;;;;4944043;28;20042;-68
2022/04/07 09:02:53;;;;;;;9.95;9.25;;;;;;;;;;4950184;28;20043;-68
2022/04/07 09:05:25;;;;;;;9.48;8.90;;;;;;;;;;4950642;28;20071;-69
2022/04/07 09:07:57;;;;;;;10.02;9.32;;;;;;;;;;4948576;29;20485;-68
2022/04/07 09:10:24;;;;;;;9.73;9.20;;;;;;;;;;4949921;28;20035;-67
2022/04/07 09:12:50;;;;;;;9.80;9.13;;;;;;;;;;4944973;29;20034;-67
2022/04/07 09:15:16;;;;;;;9.23;8.73;;;;;;;;;;4949495;29;20039;-68
2022/04/07 09:17:52;;;;;;;9.18;8.68;;;;;;;;;;4948164;28;20526;-68
2022/04/07 09:20:17;;;;;;;9.85;9.07;;;;;;;;;;4933445;29;20035;-68
2022/04/07 09:22:43;;;;;;;9.48;8.77;;;;;;;;;;4948873;28;20031;-68
2022/04/07 09:25:11;;;;;;;11.43;10.38;;;;;;;;;;4932118;29;20043;-68
2022/04/07 09:27:40;;;;;;;9.27;8.77;;;;;;;;;;4948162;28;20073;-68
2022/04/07 09:30:08;;;;;;;9.63;9.13;;;;;;;;;;4953513;28;20050;-68
2022/04/07 09:32:41;;;;;;;9.68;9.15;;;;;;;;;;4949181;28;20058;-68
2022/04/07 09:35:07;;;;;;;9.43;8.93;;;;;;;;;;4948992;28;20078;-68
2022/04/07 09:37:34;;;;;;;9.25;8.65;;;;;;;;;;4931979;28;20038;-68
2022/04/07 09:40:10;;;;;;;8.98;8.48;;;;;;;;;;4954937;28;20046;-69
2022/04/07 09:42:36;;;;;;;10.45;9.63;;;;;;;;;;4950897;28;20035;-68
2022/04/07 09:45:03;;;;;;;9.15;8.65;;;;;;;;;;4948046;28;20090;-68
2022/04/07 09:47:40;;;;;;;9.95;9.25;;;;;;;;;;4950111;28;20039;-67
2022/04/07 09:50:07;;;;;;;9.40;8.77;;;;;;;;;;4952291;28;20031;-68
2022/04/07 09:52:33;;;;;;;8.93;8.32;;;;;;;;;;4948778;29;20035;-68
2022/04/07 09:55:06;;;;;;;9.63;9.13;;;;;;;;;;4950329;28;20039;-68
2022/04/07 09:57:33;;;;;;;9.82;9.13;;;;;;;;;;4929197;29;20114;-69
2022/04/07 10:00:03;;;;;;;10.00;9.40;;;;;;;;;;4928872;29;20039;-68
2022/04/07 10:02:31;;;;;;;9.80;9.20;;;;;;;;;;4952753;28;20431;-67
2022/04/07 10:04:59;;;;;;;9.82;9.25;;;;;;;;;;4933559;29;20059;-68
2022/04/07 10:07:25;;;;;;;10.55;9.80;;;;;;;;;;4931773;29;20034;-68
2022/04/07 10:09:51;;;;;;;9.73;9.13;;;;;;;;;;4945623;28;20038;-68
2022/04/07 10:12:18;;;;;;;9.82;9.13;;;;;;;;;;4952693;28;20114;-68
2022/04/07 10:14:44;;;;;;;10.10;9.50;;;;;;;;;;4949066;28;20483;-70
2022/04/07 10:17:13;;;;;;;9.63;8.80;;;;;;;;;;4931365;29;21178;-68
2022/04/07 10:20:00;;;;;;;9.90;9.30;;;;;;;;;;4949808;28;20046;-70
2022/04/07 10:23:03;;;;;;;9.57;9.07;;;;;;;;;;4949342;28;20036;-68
2022/04/07 10:25:31;;;;;;;9.93;9.35;;;;;;;;;;4945812;29;20039;-68
2022/04/07 10:28:02;;;;;;;10.15;9.45;;;;;;;;;;4948378;28;20712;-68
2022/04/07 10:30:32;;;;;;;10.13;9.52;;;;;;;;;;4931872;29;20376;-68
2022/04/07 10:32:58;;;;;;;9.63;9.02;;;;;;;;;;4948574;28;20403;-67
2022/04/07 10:35:36;;;;;;;9.48;8.98;;;;;;;;;;4946185;28;20146;-68
2022/04/07 10:38:09;;;;;;;9.77;9.18;;;;;;;;;;4933002;29;20126;-70
2022/04/07 10:40:35;;;;;;;9.63;9.00;;;;;;;;;;4948183;29;20032;-69
2022/04/07 10:43:04;;;;;;;9.52;9.02;;;;;;;;;;4929899;29;20039;-69
2022/04/07 10:45:31;;;;;;;10.13;9.52;;;;;;;;;;4936560;28;20055;-70
2022/04/07 10:48:24;;;;;;;9.50;8.90;;;;;;;;;;4948408;29;20416;-69
2022/04/07 10:51:02;;;;;;;9.60;8.70;;;;;;;;;;4947202;29;20135;-69
2022/04/07 10:53:33;;;;;;;9.35;8.65;;;;;;;;;;4954020;28;20491;-69
2022/04/07 10:56:32;;;;;;;9.50;9.00;;;;;;;;;;4955787;28;20073;-69
2022/04/07 10:59:20;;;;;;;9.27;8.73;;;;;;;;;;4943985;29;20062;-69
2022/04/07 11:01:56;;;;;;;9.98;9.30;;;;;;;;;;4949297;28;20027;-69
2022/04/07 11:04:22;;;;;;;10.00;9.50;;;;;;;;;;4950545;28;20047;-69
2022/04/07 11:07:15;;;;;;;9.80;9.30;;;;;;;;;;4952420;28;20043;-69
2022/04/07 11:09:59;;;;;;;10.13;9.43;;;;;;;;;;4927982;29;20043;-70
2022/04/07 11:12:37;;;;;;;9.93;9.32;;;;;;;;;;4948612;29;20043;-69
2022/04/07 11:15:03;;;;;;;9.70;9.13;;;;;;;;;;4925999;29;20039;-69
2022/04/07 11:17:34;;;;;;;9.75;9.15;;;;;;;;;;4958398;28;20503;-69
2022/04/07 11:20:03;;;;;;;9.82;8.98;;;;;;;;;;4950376;28;20043;-70
2022/04/07 11:22:56;;;;;;;10.13;9.63;;;;;;;;;;4948294;28;20043;-69
2022/04/07 11:25:24;;;;;;;9.18;8.68;;;;;;;;;;4949167;28;20046;-69
2022/04/07 11:28:14;;;;;;;9.20;8.70;;;;;;;;;;4949604;29;20415;-69
2022/04/07 11:30:41;;;;;;;10.23;9.63;;;;;;;;;;4936319;28;20070;-70
2022/04/07 11:33:14;;;;;;;10.45;9.50;;;;;;;;;;4950698;28;20038;-69
2022/04/07 11:35:40;;;;;;;9.43;8.90;;;;;;;;;;4954892;28;20042;-68
2022/04/07 11:38:06;;;;;;;9.40;8.82;;;;;;;;;;4948754;29;20035;-69
2022/04/07 11:40:31;;;;;;;9.77;9.18;;;;;;;;;;4948224;28;20376;-69
2022/04/07 11:43:02;;;;;;;9.43;8.85;;;;;;;;;;4917359;29;20039;-69
2022/04/07 11:45:33;;;;;;;10.00;9.48;;;;;;;;;;4949174;28;20450;-70
2022/04/07 11:47:59;;;;;;;10.13;9.57;;;;;;;;;;4947204;29;20039;-69
2022/04/07 11:50:24;;;;;;;9.50;8.90;;;;;;;;;;4950305;28;20039;-69
2022/04/07 11:52:50;;;;;;;9.80;9.30;;;;;;;;;;4932417;29;20570;-70
2022/04/07 11:55:27;;;;;;;9.82;8.90;;;;;;;;;;4948818;28;20371;-69
2022/04/07 11:57:59;;;;;;;9.40;8.90;;;;;;;;;;4936487;28;20554;-70
2022/04/07 12:00:32;;;;;;;9.75;9.15;;;;;;;;;;4932426;28;20043;-69
2022/04/07 12:03:03;;;;;;;10.30;9.52;;;;;;;;;;4953515;28;20038;-69
2022/04/07 12:05:30;;;;;;;10.10;9.25;;;;;;;;;;4948515;28;20035;-69
2022/04/07 12:08:09;;;;;;;9.45;8.85;;;;;;;;;;4951038;28;20726;-69
2022/04/07 12:10:35;;;;;;;10.32;9.52;;;;;;;;;;4948683;29;20103;-69
2022/04/07 12:13:01;;;;;;;9.65;9.05;;;;;;;;;;4949394;28;20701;-69
2022/04/07 12:15:27;;;;;;;10.18;9.55;;;;;;;;;;4953206;28;20035;-69
2022/04/07 12:18:03;;;;;;;10.10;9.45;;;;;;;;;;4949073;29;21041;-69
2022/04/07 12:20:30;;;;;;;9.65;9.05;;;;;;;;;;4948665;29;20050;-69
2022/04/07 12:23:14;;;;;;;9.77;9.07;;;;;;;;;;4945774;28;20035;-70
2022/04/07 12:25:43;;;;;;;10.05;9.32;;;;;;;;;;4948740;28;20051;-70
2022/04/07 12:28:16;;;;;;;10.55;9.80;;;;;;;;;;4949009;28;20093;-69
2022/04/07 12:30:52;;;;;;;9.98;9.48;;;;;;;;;;4930793;28;20035;-68
2022/04/07 12:33:41;;;;;;;10.18;9.40;;;;;;;;;;4948988;28;20047;-68
2022/04/07 12:36:16;;;;;;;10.13;9.63;;;;;;;;;;4928796;29;20043;-69
2022/04/07 12:38:58;;;;;;;10.30;9.70;;;;;;;;;;4949115;28;20039;-69
2022/04/07 12:41:40;;;;;;;9.82;9.30;;;;;;;;;;4952528;28;20043;-68
2022/04/07 12:44:10;;;;;;;10.07;9.43;;;;;;;;;;4949604;29;20051;-68
2022/04/07 12:46:56;;;;;;;10.23;9.63;;;;;;;;;;4947662;28;20044;-68
2022/04/07 12:49:33;;;;;;;10.32;9.63;;;;;;;;;;4957863;28;20050;-68
2022/04/07 12:52:04;;;;;;;9.77;9.27;;;;;;;;;;4948526;28;20049;-68
2022/04/07 12:54:30;;;;;;;10.63;9.95;;;;;;;;;;4930465;29;20522;-69
2022/04/07 12:57:13;;;;;;;10.73;9.80;;;;;;;;;;4951680;28;20049;-69
2022/04/07 12:59:41;;;;;;;10.32;9.57;;;;;;;;;;4953770;28;20047;-69
2022/04/07 13:02:07;;;;;;;10.52;9.98;;;;;;;;;;4930674;29;20059;-69
2022/04/07 13:04:52;;;;;;;10.20;9.70;;;;;;;;;;4921231;29;20201;-69
2022/04/07 13:07:19;;;;;;;10.30;9.57;;;;;;;;;;4938432;28;20039;-68
2022/04/07 13:09:47;;;;;;;10.57;9.80;;;;;;;;;;4935945;29;20042;-69
2022/04/07 13:12:14;;;;;;;10.32;9.73;;;;;;;;;;4948584;28;20673;-69
2022/04/07 13:14:43;;;;;;;9.95;9.45;;;;;;;;;;4947442;28;20035;-69
2022/04/07 13:17:11;;;;;;;9.73;9.23;;;;;;;;;;4950627;28;20046;-69
2022/04/07 13:19:37;;;;;;;9.98;9.48;;;;;;;;;;4950097;28;20046;-69
2022/04/07 13:22:03;;;;;;;10.10;9.50;;;;;;;;;;4948284;29;20035;-69
2022/04/07 13:24:29;;;;;;;10.13;9.45;;;;;;;;;;4947648;28;20055;-68
2022/04/07 13:26:55;;;;;;;10.10;9.50;;;;;;;;;;4951000;28;20039;-67
2022/04/07 13:29:21;;;;;;;9.95;9.35;;;;;;;;;;4944703;28;20035;-67
2022/04/07 13:31:47;;;;;;;9.65;9.05;;;;;;;;;;4947550;28;20038;-69
2022/04/07 13:34:14;;;;;;;9.48;8.93;;;;;;;;;;4949155;28;20035;-69
2022/04/07 13:36:40;;;;;;;9.68;9.18;;;;;;;;;;4950351;28;20043;-67
2022/04/07 13:39:06;;;;;;;9.50;8.98;;;;;;;;;;4948724;29;20050;-70
2022/04/07 13:41:32;;;;;;;9.43;8.93;;;;;;;;;;4931099;29;20562;-69
2022/04/07 13:43:58;;;;;;;9.85;9.35;;;;;;;;;;4950544;28;20122;-70
2022/04/07 13:46:24;;;;;;;10.00;9.40;;;;;;;;;;4952295;28;20049;-69
2022/04/07 13:48:52;;;;;;;9.93;9.32;;;;;;;;;;4930266;29;20129;-69
2022/04/07 13:51:18;;;;;;;9.70;9.07;;;;;;;;;;4948043;28;20106;-68
2022/04/07 13:53:44;;;;;;;9.80;9.20;;;;;;;;;;4935442;28;20133;-69
2022/04/07 13:56:10;;;;;;;9.60;9.10;;;;;;;;;;4950740;28;20035;-69
2022/04/07 13:58:36;;;;;;;9.70;9.10;;;;;;;;;;4947966;29;20453;-69
2022/04/07 14:01:03;;;;;;;10.15;9.35;;;;;;;;;;4944050;28;20043;-68
2022/04/07 14:03:29;;;;;;;9.45;8.85;;;;;;;;;;4956727;28;20038;-68
2022/04/07 14:05:58;;;;;;;9.77;9.05;;;;;;;;;;4947335;28;20055;-69
2022/04/07 14:08:24;;;;;;;;;;;;;;;;;;4949628;28;20082;-70
2022/04/07 14:10:50;;;;;;;10.07;9.43;;;;;;;;;;4931957;29;20520;-69
2022/04/07 14:13:15;;;;;;;10.18;9.43;;;;;;;;;;4946811;29;20036;-69
2022/04/07 14:15:43;;;;;;;10.10;9.50;;;;;;;;;;4947561;28;20035;-69
2022/04/07 14:18:08;;;;;;;10.57;9.88;;;;;;;;;;4951104;28;20043;-69
2022/04/07 14:20:36;;;;;;;10.65;10.05;;;;;;;;;;4947391;28;20039;-69
2022/04/07 14:23:01;;;;;;;10.77;10.07;;;;;;;;;;4947142;28;20050;-68
2022/04/07 14:25:27;;;;;;;10.15;9.50;;;;;;;;;;4935945;28;20035;-70
2022/04/07 14:27:53;;;;;;;9.73;9.23;;;;;;;;;;4934158;29;20046;-69
2022/04/07 14:30:18;;;;;;;10.60;10.00;;;;;;;;;;4950801;28;20046;-68
2022/04/07 14:32:46;;;;;;;9.73;9.13;;;;;;;;;;4954256;28;20171;-68
2022/04/07 14:35:13;;;;;;;9.77;9.18;;;;;;;;;;4957378;28;20049;-69
2022/04/07 14:37:40;;;;;;;10.43;9.65;;;;;;;;;;4934594;29;20056;-70
2022/04/07 14:40:06;;;;;;;9.95;9.40;;;;;;;;;;4917164;29;20058;-69